createdAt,value
2023-01-07T00:00:19.627Z,66.08
2023-01-07T00:01:19.583Z,58.30
2023-01-07T00:02:19.710Z,65.17
2023-01-07T00:03:19.568Z,68.70
2023-01-07T00:04:19.518Z,67.44
2023-01-07T00:05:19.518Z,73.40
2023-01-07T00:06:19.565Z,67.19
2023-01-07T00:07:19.503Z,63.63
2023-01-07T00:08:19.482Z,66.16
2023-01-07T00:09:19.497Z,64.08
2023-01-07T00:10:19.468Z,70.92
2023-01-07T00:11:19.491Z,67.25
2023-01-07T00:12:19.474Z,64.69
2023-01-07T00:13:19.450Z,61.27
2023-01-07T00:14:19.427Z,70.19
2023-01-07T00:15:19.407Z,65.69
2023-01-07T00:16:19.453Z,69.07
2023-01-07T00:17:19.404Z,69.08
2023-01-07T00:18:19.491Z,65.73
2023-01-07T00:19:19.352Z,67.71
2023-01-07T00:20:19.353Z,72.40
2023-01-07T00:21:19.334Z,67.19
2023-01-07T00:22:19.425Z,67.64
2023-01-07T00:23:19.328Z,66.45
2023-01-07T00:24:19.340Z,68.61
2023-01-07T00:25:19.365Z,55.09
2023-01-07T00:26:19.327Z,53.42
2023-01-07T00:27:19.281Z,51.79
2023-01-07T00:28:19.316Z,59.65
2023-01-07T00:29:19.262Z,70.02
2023-01-07T00:30:19.249Z,64.40
2023-01-07T00:31:19.311Z,63.79
2023-01-07T00:32:19.246Z,67.91
2023-01-07T00:33:19.236Z,64.64
2023-01-07T00:34:19.300Z,48.71
2023-01-07T00:35:19.206Z,60.53
2023-01-07T00:36:19.206Z,65.09
2023-01-07T00:37:19.166Z,67.57
2023-01-07T00:38:19.178Z,71.34
2023-01-07T00:39:19.213Z,71.21
2023-01-07T00:40:19.162Z,59.23
2023-01-07T00:41:19.137Z,63.16
2023-01-07T00:42:19.127Z,58.28
2023-01-07T00:43:20.122Z,64.31
2023-01-07T00:44:19.123Z,63.87
2023-01-07T00:45:19.086Z,68.43
2023-01-07T00:46:19.158Z,64.97
2023-01-07T00:47:19.151Z,67.58
2023-01-07T00:48:19.093Z,64.97
2023-01-07T00:49:19.048Z,70.02
2023-01-07T00:50:19.128Z,60.25
2023-01-07T00:51:19.057Z,61.61
2023-01-07T00:52:19.075Z,64.42
2023-01-07T00:53:19.030Z,69.72
2023-01-07T00:54:18.972Z,60.24
2023-01-07T00:55:19.041Z,72.65
2023-01-07T00:56:19.075Z,59.76
2023-01-07T00:57:18.967Z,60.03
2023-01-07T00:58:19.011Z,62.55
2023-01-07T00:59:18.939Z,69.27
2023-01-07T01:00:18.941Z,71.43
2023-01-07T01:01:18.985Z,63.59
2023-01-07T01:02:18.957Z,63.94
2023-01-07T01:03:18.969Z,68.79
2023-01-07T01:04:18.899Z,65.37
2023-01-07T01:05:18.887Z,62.00
2023-01-07T01:06:18.970Z,61.23
2023-01-07T01:07:18.857Z,65.92
2023-01-07T01:08:18.870Z,64.67
2023-01-07T01:09:18.816Z,63.21
2023-01-07T01:10:18.864Z,58.34
2023-01-07T01:11:18.926Z,72.91
2023-01-07T01:12:18.805Z,62.22
2023-01-07T01:13:18.827Z,61.42
2023-01-07T01:14:18.769Z,64.98
2023-01-07T01:15:18.794Z,66.33
2023-01-07T01:16:18.853Z,69.37
2023-01-07T01:17:18.763Z,66.79
2023-01-07T01:18:18.798Z,64.54
2023-01-07T01:19:18.741Z,64.74
2023-01-07T01:20:18.717Z,63.24
2023-01-07T01:21:18.705Z,61.79
2023-01-07T01:22:18.801Z,61.56
2023-01-07T01:23:18.794Z,58.08
2023-01-07T01:24:18.682Z,62.69
2023-01-07T01:25:18.671Z,66.71
2023-01-07T01:26:18.682Z,60.26
2023-01-07T01:27:18.682Z,70.41
2023-01-07T01:28:18.641Z,58.37
2023-01-07T01:29:18.630Z,62.75
2023-01-07T01:30:18.614Z,67.80
2023-01-07T01:31:18.640Z,69.77
2023-01-07T01:32:18.577Z,64.75
2023-01-07T01:33:18.570Z,59.74
2023-01-07T01:34:18.565Z,56.36
2023-01-07T01:35:18.584Z,65.41
2023-01-07T01:36:18.542Z,54.78
2023-01-07T01:37:18.522Z,47.51
2023-01-07T01:38:18.620Z,60.74
2023-01-07T01:39:18.505Z,64.32
2023-01-07T01:40:18.530Z,71.13
2023-01-07T01:41:18.505Z,71.94
2023-01-07T01:42:18.454Z,67.26
2023-01-07T01:43:18.469Z,63.41
2023-01-07T01:44:18.459Z,67.77
2023-01-07T01:45:18.451Z,56.92
2023-01-07T01:46:18.468Z,58.66
2023-01-07T01:47:18.430Z,53.01
2023-01-07T01:48:18.429Z,60.74
2023-01-07T01:49:18.429Z,55.20
2023-01-07T01:50:18.438Z,56.28
2023-01-07T01:51:18.390Z,61.59
2023-01-07T01:52:18.370Z,47.90
2023-01-07T01:53:18.362Z,66.32
2023-01-07T01:54:18.425Z,68.14
2023-01-07T01:55:18.362Z,66.59
2023-01-07T01:56:18.409Z,60.36
2023-01-07T01:57:18.301Z,54.56
2023-01-07T01:58:18.325Z,68.10
2023-01-07T01:59:18.320Z,67.07
2023-01-07T02:00:18.291Z,60.60
2023-01-07T02:01:18.425Z,66.83
2023-01-07T02:02:18.336Z,61.67
2023-01-07T02:03:18.256Z,56.75
2023-01-07T02:04:18.295Z,65.66
2023-01-07T02:05:18.310Z,55.72
2023-01-07T02:06:18.222Z,49.87
2023-01-07T02:07:18.245Z,64.70
2023-01-07T02:08:18.194Z,68.64
2023-01-07T02:09:18.168Z,61.49
2023-01-07T02:10:18.273Z,61.37
2023-01-07T02:11:18.166Z,61.80
2023-01-07T02:12:18.170Z,57.72
2023-01-07T02:13:18.157Z,66.88
2023-01-07T02:14:18.140Z,58.09
2023-01-07T02:15:18.146Z,65.94
2023-01-07T02:16:18.147Z,52.59
2023-01-07T02:17:18.110Z,58.15
2023-01-07T02:18:18.107Z,58.27
2023-01-07T02:19:18.105Z,67.36
2023-01-07T02:20:18.058Z,64.19
2023-01-07T02:21:18.081Z,60.45
2023-01-07T02:22:18.048Z,69.89
2023-01-07T02:23:18.044Z,70.23
2023-01-07T02:24:18.047Z,62.88
2023-01-07T02:25:18.024Z,65.71
2023-01-07T02:26:18.118Z,56.20
2023-01-07T02:27:20.222Z,66.83
2023-01-07T02:28:18.005Z,66.95
2023-01-07T02:29:17.981Z,66.76
2023-01-07T02:30:18.113Z,67.75
2023-01-07T02:31:17.991Z,69.15
2023-01-07T02:32:18.745Z,65.47
2023-01-07T02:33:17.940Z,72.66
2023-01-07T02:34:18.090Z,53.57
2023-01-07T02:35:17.915Z,64.74
2023-01-07T02:36:17.908Z,59.24
2023-01-07T02:37:17.912Z,59.91
2023-01-07T02:38:17.892Z,63.04
2023-01-07T02:39:17.877Z,60.61
2023-01-07T02:40:17.898Z,68.50
2023-01-07T02:41:17.838Z,68.48
2023-01-07T02:42:17.934Z,65.35
2023-01-07T02:43:17.834Z,68.79
2023-01-07T02:44:17.831Z,60.15
2023-01-07T02:45:17.798Z,63.87
2023-01-07T02:46:17.880Z,49.71
2023-01-07T02:47:17.825Z,61.45
2023-01-07T02:48:17.753Z,62.05
2023-01-07T02:49:17.781Z,58.48
2023-01-07T02:50:17.759Z,70.46
2023-01-07T02:51:17.756Z,52.85
2023-01-07T02:52:17.748Z,68.23
2023-01-07T02:53:17.752Z,72.05
2023-01-07T02:54:17.716Z,54.38
2023-01-07T02:55:17.707Z,61.65
2023-01-07T02:56:17.697Z,57.02
2023-01-07T02:57:17.696Z,60.32
2023-01-07T02:58:17.763Z,55.75
2023-01-07T02:59:17.653Z,55.87
2023-01-07T03:00:17.660Z,59.60
2023-01-07T03:01:17.681Z,66.45
2023-01-07T03:02:17.622Z,67.19
2023-01-07T03:03:17.630Z,62.08
2023-01-07T03:04:17.631Z,64.04
2023-01-07T03:05:17.596Z,67.43
2023-01-07T03:06:17.589Z,63.13
2023-01-07T03:07:17.573Z,67.28
2023-01-07T03:08:17.574Z,61.03
2023-01-07T03:09:17.575Z,64.12
2023-01-07T03:10:17.552Z,70.40
2023-01-07T03:11:17.574Z,63.28
2023-01-07T03:12:17.527Z,66.85
2023-01-07T03:13:17.569Z,66.29
2023-01-07T03:14:17.631Z,60.78
2023-01-07T03:15:17.504Z,59.52
2023-01-07T03:16:17.596Z,48.53
2023-01-07T03:17:17.476Z,59.99
2023-01-07T03:18:17.457Z,65.42
2023-01-07T03:19:17.459Z,59.41
2023-01-07T03:20:17.462Z,67.82
2023-01-07T03:21:17.418Z,69.95
2023-01-07T03:22:17.495Z,62.35
2023-01-07T03:23:17.404Z,68.23
2023-01-07T03:24:17.414Z,62.98
2023-01-07T03:25:17.391Z,59.53
2023-01-07T03:26:17.407Z,55.89
2023-01-07T03:27:17.392Z,72.87
2023-01-07T03:28:17.357Z,57.08
2023-01-07T03:29:17.373Z,66.10
2023-01-07T03:30:17.460Z,60.95
2023-01-07T03:31:17.389Z,66.81
2023-01-07T03:32:17.338Z,63.49
2023-01-07T03:33:17.322Z,59.75
2023-01-07T03:34:17.269Z,66.48
2023-01-07T03:35:17.305Z,63.54
2023-01-07T03:36:17.258Z,64.77
2023-01-07T03:37:17.265Z,67.68
2023-01-07T03:38:17.255Z,63.56
2023-01-07T03:39:17.260Z,59.52
2023-01-07T03:40:17.256Z,68.79
2023-01-07T03:41:17.222Z,60.47
2023-01-07T03:42:17.219Z,59.47
2023-01-07T03:43:17.184Z,57.99
2023-01-07T03:44:17.164Z,67.60
2023-01-07T03:45:17.155Z,67.04
2023-01-07T03:46:17.289Z,66.92
2023-01-07T03:47:17.151Z,69.92
2023-01-07T03:48:17.147Z,61.11
2023-01-07T03:49:17.120Z,66.36
2023-01-07T03:50:17.121Z,63.83
2023-01-07T03:51:17.096Z,64.79
2023-01-07T03:52:17.085Z,58.17
2023-01-07T03:53:18.099Z,66.49
2023-01-07T03:54:17.082Z,63.30
2023-01-07T03:55:17.056Z,66.53
2023-01-07T03:56:17.133Z,62.39
2023-01-07T03:57:17.045Z,61.93
2023-01-07T03:58:17.042Z,57.85
2023-01-07T03:59:17.020Z,60.35
2023-01-07T04:00:17.038Z,62.58
2023-01-07T04:01:17.080Z,63.42
2023-01-07T04:02:17.093Z,57.51
2023-01-07T04:03:17.025Z,67.20
2023-01-07T04:04:16.970Z,68.51
2023-01-07T04:05:16.960Z,67.23
2023-01-07T04:06:16.932Z,72.06
2023-01-07T04:07:16.937Z,64.16
2023-01-07T04:08:16.929Z,66.67
2023-01-07T04:09:16.905Z,62.97
2023-01-07T04:10:17.896Z,71.37
2023-01-07T04:11:16.896Z,68.33
2023-01-07T04:12:16.901Z,68.03
2023-01-07T04:13:16.962Z,53.59
2023-01-07T04:14:17.002Z,64.71
2023-01-07T04:15:16.835Z,60.57
2023-01-07T04:16:16.855Z,67.20
2023-01-07T04:17:16.832Z,69.60
2023-01-07T04:18:16.895Z,66.19
2023-01-07T04:19:16.805Z,65.36
2023-01-07T04:20:16.768Z,71.82
2023-01-07T04:21:16.785Z,66.17
2023-01-07T04:22:16.814Z,67.39
2023-01-07T04:23:16.808Z,65.74
2023-01-07T04:24:16.735Z,67.67
2023-01-07T04:25:16.717Z,67.10
2023-01-07T04:26:16.711Z,61.35
2023-01-07T04:27:16.716Z,61.95
2023-01-07T04:28:16.718Z,65.15
2023-01-07T04:29:16.691Z,63.88
2023-01-07T04:30:16.695Z,66.71
2023-01-07T04:31:16.670Z,61.84
2023-01-07T04:32:16.639Z,67.58
2023-01-07T04:33:16.651Z,66.80
2023-01-07T04:34:16.717Z,73.18
2023-01-07T04:35:16.675Z,68.35
2023-01-07T04:36:16.611Z,70.50
2023-01-07T04:37:16.588Z,67.14
2023-01-07T04:38:16.624Z,68.77
2023-01-07T04:39:16.581Z,69.59
2023-01-07T04:40:16.571Z,67.50
2023-01-07T04:41:16.549Z,65.19
2023-01-07T04:42:16.540Z,63.38
2023-01-07T04:43:16.535Z,70.94
2023-01-07T04:44:16.568Z,66.02
2023-01-07T04:45:16.505Z,70.26
2023-01-07T04:46:16.574Z,66.91
2023-01-07T04:47:16.482Z,67.01
2023-01-07T04:48:16.474Z,64.26
2023-01-07T04:49:16.513Z,64.91
2023-01-07T04:50:16.551Z,69.57
2023-01-07T04:51:16.459Z,65.18
2023-01-07T04:52:17.349Z,70.72
2023-01-07T04:53:16.410Z,70.84
2023-01-07T04:54:16.439Z,67.98
2023-01-07T04:55:16.450Z,62.51
2023-01-07T04:56:16.371Z,71.18
2023-01-07T04:57:16.379Z,66.97
2023-01-07T04:58:16.394Z,70.42
2023-01-07T04:59:16.375Z,71.47
2023-01-07T05:00:16.363Z,68.10
2023-01-07T05:01:16.511Z,64.57
2023-01-07T05:02:16.386Z,69.75
2023-01-07T05:03:16.363Z,67.24
2023-01-07T05:04:16.346Z,69.02
2023-01-07T05:05:16.286Z,69.02
2023-01-07T05:06:16.377Z,69.43
2023-01-07T05:07:16.267Z,66.63
2023-01-07T05:08:16.271Z,68.98
2023-01-07T05:09:16.267Z,68.59
2023-01-07T05:10:16.258Z,70.19
2023-01-07T05:11:16.220Z,69.79
2023-01-07T05:12:16.220Z,69.90
2023-01-07T05:13:16.199Z,67.57
2023-01-07T05:14:16.228Z,68.54
2023-01-07T05:15:16.223Z,68.09
2023-01-07T05:16:16.290Z,70.77
2023-01-07T05:17:16.174Z,67.52
2023-01-07T05:18:16.174Z,62.57
2023-01-07T05:19:16.166Z,67.88
2023-01-07T05:20:16.155Z,70.97
2023-01-07T05:21:16.192Z,72.42
2023-01-07T05:22:16.188Z,70.56
2023-01-07T05:23:16.112Z,69.81
2023-01-07T05:24:16.093Z,68.01
2023-01-07T05:25:16.109Z,68.48
2023-01-07T05:26:16.103Z,72.40
2023-01-07T05:27:16.093Z,72.24
2023-01-07T05:28:16.040Z,72.33
2023-01-07T05:29:16.036Z,73.25
2023-01-07T05:30:16.045Z,73.56
2023-01-07T05:31:16.117Z,71.48
2023-01-07T05:32:16.018Z,74.20
2023-01-07T05:33:15.998Z,73.42
2023-01-07T05:34:16.019Z,71.64
2023-01-07T05:35:15.961Z,73.73
2023-01-07T05:36:15.970Z,71.18
2023-01-07T05:37:15.996Z,70.10
2023-01-07T05:38:17.017Z,74.40
2023-01-07T05:39:15.946Z,73.73
2023-01-07T05:40:16.061Z,66.81
2023-01-07T05:41:15.947Z,71.44
2023-01-07T05:42:15.908Z,72.39
2023-01-07T05:43:16.047Z,73.20
2023-01-07T05:44:15.880Z,66.84
2023-01-07T05:45:15.872Z,69.47
2023-01-07T05:46:15.908Z,67.14
2023-01-07T05:47:15.836Z,71.69
2023-01-07T05:48:16.010Z,67.25
2023-01-07T05:49:15.843Z,64.37
2023-01-07T05:50:15.810Z,70.64
2023-01-07T05:51:15.805Z,69.10
2023-01-07T05:52:15.791Z,67.88
2023-01-07T05:53:15.798Z,64.44
2023-01-07T05:54:15.863Z,69.90
2023-01-07T05:55:15.752Z,66.98
2023-01-07T05:56:15.735Z,61.42
2023-01-07T05:57:15.739Z,69.52
2023-01-07T05:58:15.725Z,67.96
2023-01-07T05:59:16.740Z,68.48
2023-01-07T06:00:15.722Z,72.00
2023-01-07T06:01:15.742Z,71.26
2023-01-07T06:02:15.676Z,63.30
2023-01-07T06:03:15.761Z,62.48
2023-01-07T06:04:15.802Z,65.98
2023-01-07T06:05:16.639Z,67.20
2023-01-07T06:06:15.627Z,64.25
2023-01-07T06:07:15.644Z,69.99
2023-01-07T06:08:15.605Z,68.89
2023-01-07T06:09:15.651Z,69.27
2023-01-07T06:10:15.714Z,71.00
2023-01-07T06:11:15.625Z,67.69
2023-01-07T06:12:15.560Z,68.31
2023-01-07T06:13:15.562Z,68.53
2023-01-07T06:14:15.548Z,68.06
2023-01-07T06:15:15.571Z,71.35
2023-01-07T06:16:15.640Z,69.12
2023-01-07T06:17:15.515Z,74.44
2023-01-07T06:18:15.507Z,69.03
2023-01-07T06:19:15.530Z,69.92
2023-01-07T06:20:15.510Z,71.05
2023-01-07T06:21:15.495Z,66.66
2023-01-07T06:22:15.472Z,64.46
2023-01-07T06:23:15.444Z,68.43
2023-01-07T06:24:15.458Z,73.84
2023-01-07T06:25:15.458Z,66.66
2023-01-07T06:26:16.490Z,69.19
2023-01-07T06:27:15.406Z,71.20
2023-01-07T06:28:15.395Z,71.35
2023-01-07T06:29:15.380Z,70.84
2023-01-07T06:30:15.395Z,70.09
2023-01-07T06:31:15.429Z,72.12
2023-01-07T06:32:15.484Z,74.26
2023-01-07T06:33:15.356Z,72.33
2023-01-07T06:34:15.336Z,71.04
2023-01-07T06:35:15.404Z,71.53
2023-01-07T06:36:15.344Z,72.83
2023-01-07T06:37:15.312Z,71.10
2023-01-07T06:38:15.352Z,72.71
2023-01-07T06:39:15.269Z,70.01
2023-01-07T06:40:15.245Z,72.95
2023-01-07T06:41:15.307Z,70.37
2023-01-07T06:42:15.346Z,67.00
2023-01-07T06:43:15.297Z,72.28
2023-01-07T06:44:15.213Z,71.20
2023-01-07T06:45:15.211Z,70.76
2023-01-07T06:46:15.252Z,66.57
2023-01-07T06:47:15.191Z,68.59
2023-01-07T06:48:15.217Z,69.81
2023-01-07T06:49:15.165Z,71.32
2023-01-07T06:50:15.167Z,72.79
2023-01-07T06:51:15.134Z,72.47
2023-01-07T06:52:15.132Z,71.91
2023-01-07T06:53:15.121Z,67.22
2023-01-07T06:54:15.138Z,71.58
2023-01-07T06:55:15.113Z,68.04
2023-01-07T06:56:15.157Z,69.27
2023-01-07T06:57:15.139Z,68.30
2023-01-07T06:58:15.161Z,71.12
2023-01-07T06:59:15.122Z,66.96
2023-01-07T07:00:15.083Z,70.36
2023-01-07T07:01:15.183Z,68.06
2023-01-07T07:02:15.108Z,71.31
2023-01-07T07:03:15.063Z,69.26
2023-01-07T07:04:15.044Z,66.43
2023-01-07T07:05:15.034Z,68.56
2023-01-07T07:06:14.982Z,71.06
2023-01-07T07:07:15.007Z,70.90
2023-01-07T07:08:14.958Z,65.24
2023-01-07T07:09:14.968Z,62.83
2023-01-07T07:10:14.959Z,64.12
2023-01-07T07:11:14.939Z,73.77
2023-01-07T07:12:14.919Z,73.68
2023-01-07T07:13:14.925Z,69.40
2023-01-07T07:14:15.054Z,72.00
2023-01-07T07:15:14.937Z,70.16
2023-01-07T07:16:15.000Z,71.67
2023-01-07T07:17:14.863Z,70.55
2023-01-07T07:18:14.878Z,67.86
2023-01-07T07:19:14.882Z,69.30
2023-01-07T07:20:14.843Z,73.01
2023-01-07T07:21:14.857Z,72.52
2023-01-07T07:22:14.797Z,67.68
2023-01-07T07:23:15.374Z,70.13
2023-01-07T07:24:14.774Z,68.20
2023-01-07T07:25:14.816Z,71.26
2023-01-07T07:26:14.817Z,72.65
2023-01-07T07:27:14.763Z,71.20
2023-01-07T07:28:14.759Z,71.38
2023-01-07T07:29:14.767Z,71.90
2023-01-07T07:30:14.842Z,71.95
2023-01-07T07:31:14.754Z,70.94
2023-01-07T07:32:14.715Z,74.58
2023-01-07T07:33:14.708Z,72.81
2023-01-07T07:34:14.676Z,68.68
2023-01-07T07:35:14.679Z,69.25
2023-01-07T07:36:14.674Z,67.56
2023-01-07T07:37:14.890Z,72.39
2023-01-07T07:38:14.638Z,72.65
2023-01-07T07:39:14.658Z,72.32
2023-01-07T07:40:14.614Z,73.41
2023-01-07T07:41:14.608Z,71.57
2023-01-07T07:42:14.604Z,73.52
2023-01-07T07:43:15.609Z,71.64
2023-01-07T07:44:14.591Z,71.36
2023-01-07T07:45:14.597Z,74.20
2023-01-07T07:46:14.687Z,73.46
2023-01-07T07:47:15.348Z,72.49
2023-01-07T07:48:14.549Z,73.45
2023-01-07T07:49:14.570Z,75.06
2023-01-07T07:50:14.532Z,74.30
2023-01-07T07:51:14.528Z,72.86
2023-01-07T07:52:14.511Z,70.29
2023-01-07T07:53:14.537Z,74.24
2023-01-07T07:54:14.487Z,72.36
2023-01-07T07:55:19.956Z,71.92
2023-01-07T07:56:16.473Z,73.99
2023-01-07T07:57:14.428Z,70.47
2023-01-07T07:58:14.436Z,72.23
2023-01-07T07:59:14.448Z,68.95
2023-01-07T08:00:14.410Z,72.05
2023-01-07T08:01:14.502Z,72.36
2023-01-07T08:02:14.436Z,74.59
2023-01-07T08:03:14.449Z,70.99
2023-01-07T08:04:14.366Z,73.75
2023-01-07T08:05:14.358Z,72.99
2023-01-07T08:06:14.387Z,73.62
2023-01-07T08:07:14.327Z,71.27
2023-01-07T08:08:15.366Z,73.65
2023-01-07T08:09:14.309Z,74.30
2023-01-07T08:10:14.346Z,74.54
2023-01-07T08:11:14.285Z,73.02
2023-01-07T08:12:14.278Z,73.63
2023-01-07T08:13:14.264Z,71.21
2023-01-07T08:14:14.286Z,74.74
2023-01-07T08:15:14.264Z,72.50
2023-01-07T08:16:14.341Z,73.14
2023-01-07T08:17:14.249Z,72.72
2023-01-07T08:18:14.312Z,75.13
2023-01-07T08:19:14.218Z,74.67
2023-01-07T08:20:14.377Z,73.41
2023-01-07T08:21:14.178Z,73.08
2023-01-07T08:22:14.173Z,72.65
2023-01-07T08:23:14.187Z,72.91
2023-01-07T08:24:14.248Z,73.29
2023-01-07T08:25:14.151Z,74.49
2023-01-07T08:26:14.139Z,72.63
2023-01-07T08:27:14.111Z,72.23
2023-01-07T08:28:14.105Z,73.87
2023-01-07T08:29:14.111Z,73.06
2023-01-07T08:30:14.074Z,73.74
2023-01-07T08:31:14.151Z,75.25
2023-01-07T08:32:14.077Z,74.19
2023-01-07T08:33:14.064Z,75.65
2023-01-07T08:34:14.135Z,75.11
2023-01-07T08:35:14.057Z,72.57
2023-01-07T08:36:22.524Z,74.34
2023-01-07T08:37:16.023Z,72.96
2023-01-07T08:38:14.025Z,74.30
2023-01-07T08:39:14.023Z,74.38
2023-01-07T08:40:13.986Z,73.79
2023-01-07T08:41:14.378Z,71.63
2023-01-07T08:42:13.955Z,74.61
2023-01-07T08:43:13.943Z,73.44
2023-01-07T08:44:13.951Z,73.68
2023-01-07T08:45:13.939Z,72.57
2023-01-07T08:46:13.983Z,74.52
2023-01-07T08:47:13.920Z,75.60
2023-01-07T08:48:13.915Z,73.65
2023-01-07T08:49:13.872Z,73.69
2023-01-07T08:50:13.964Z,70.51
2023-01-07T08:51:13.840Z,72.17
2023-01-07T08:52:13.848Z,74.60
2023-01-07T08:53:13.832Z,72.75
2023-01-07T08:54:13.831Z,73.95
2023-01-07T08:55:13.847Z,74.16
2023-01-07T08:56:13.795Z,75.20
2023-01-07T08:57:13.838Z,75.25
2023-01-07T08:58:13.778Z,75.15
2023-01-07T08:59:13.783Z,73.93
2023-01-07T09:00:15.732Z,74.84
2023-01-07T09:01:13.934Z,73.62
2023-01-07T09:02:13.850Z,73.48
2023-01-07T09:03:13.724Z,75.65
2023-01-07T09:04:13.765Z,74.62
2023-01-07T09:05:13.750Z,74.10
2023-01-07T09:06:13.825Z,71.97
2023-01-07T09:07:13.821Z,73.01
2023-01-07T09:08:13.670Z,75.85
2023-01-07T09:09:13.693Z,75.15
2023-01-07T09:10:13.681Z,76.09
2023-01-07T09:11:13.665Z,73.23
2023-01-07T09:12:13.637Z,72.66
2023-01-07T09:13:13.648Z,74.23
2023-01-07T09:14:13.624Z,75.27
2023-01-07T09:15:13.636Z,75.60
2023-01-07T09:16:13.630Z,73.13
2023-01-07T09:17:13.576Z,72.18
2023-01-07T09:18:13.565Z,74.03
2023-01-07T09:19:13.583Z,74.55
2023-01-07T09:20:13.602Z,74.69
2023-01-07T09:21:13.541Z,73.54
2023-01-07T09:22:13.681Z,73.42
2023-01-07T09:23:13.529Z,71.83
2023-01-07T09:24:13.512Z,74.09
2023-01-07T09:25:13.841Z,75.34
2023-01-07T09:26:13.492Z,75.33
2023-01-07T09:27:13.489Z,73.33
2023-01-07T09:28:13.465Z,74.97
2023-01-07T09:29:13.478Z,72.56
2023-01-07T09:30:13.541Z,74.78
2023-01-07T09:31:13.490Z,74.86
2023-01-07T09:32:13.411Z,75.21
2023-01-07T09:33:13.450Z,74.13
2023-01-07T09:34:13.424Z,74.79
2023-01-07T09:35:13.424Z,75.40
2023-01-07T09:36:13.409Z,75.10
2023-01-07T09:37:13.368Z,73.14
2023-01-07T09:38:13.474Z,73.93
2023-01-07T09:39:13.377Z,75.45
2023-01-07T09:40:13.339Z,74.33
2023-01-07T09:41:13.343Z,73.87
2023-01-07T09:42:13.332Z,73.17
2023-01-07T09:43:13.309Z,74.36
2023-01-07T09:44:14.243Z,74.66
2023-01-07T09:45:13.304Z,75.00
2023-01-07T09:46:14.348Z,74.46
2023-01-07T09:47:13.285Z,73.11
2023-01-07T09:48:13.284Z,75.72
2023-01-07T09:49:13.250Z,73.42
2023-01-07T09:50:13.279Z,74.61
2023-01-07T09:51:13.321Z,74.21
2023-01-07T09:52:13.334Z,73.05
2023-01-07T09:53:13.238Z,74.04
2023-01-07T09:54:13.280Z,72.96
2023-01-07T09:55:13.178Z,76.02
2023-01-07T09:56:13.241Z,74.04
2023-01-07T09:57:13.181Z,72.94
2023-01-07T09:58:13.166Z,74.59
2023-01-07T09:59:13.165Z,74.53
2023-01-07T10:00:13.130Z,74.85
2023-01-07T10:01:13.155Z,74.85
2023-01-07T10:02:13.871Z,74.10
2023-01-07T10:03:13.123Z,74.05
2023-01-07T10:04:13.160Z,73.73
2023-01-07T10:05:13.110Z,75.16
2023-01-07T10:06:13.090Z,74.97
2023-01-07T10:07:13.238Z,78.00
2023-01-07T10:08:31.552Z,75.68
2023-01-07T10:09:14.069Z,75.59
2023-01-07T10:10:13.182Z,74.94
2023-01-07T10:11:13.030Z,76.39
2023-01-07T10:12:13.032Z,73.05
2023-01-07T10:13:13.045Z,73.63
2023-01-07T10:14:12.994Z,74.81
2023-01-07T10:15:12.997Z,74.19
2023-01-07T10:16:13.075Z,75.97
2023-01-07T10:17:12.980Z,73.78
2023-01-07T10:18:12.959Z,75.87
2023-01-07T10:19:12.958Z,74.21
2023-01-07T10:20:12.954Z,75.40
2023-01-07T10:21:12.940Z,73.14
2023-01-07T10:22:12.926Z,76.41
2023-01-07T10:23:12.933Z,75.88
2023-01-07T10:24:12.945Z,76.20
2023-01-07T10:25:12.882Z,76.29
2023-01-07T10:26:12.967Z,76.94
2023-01-07T10:27:12.851Z,76.39
2023-01-07T10:28:12.930Z,73.51
2023-01-07T10:29:12.855Z,74.52
2023-01-07T10:30:12.854Z,76.93
2023-01-07T10:31:12.862Z,75.92
2023-01-07T10:32:12.815Z,75.12
2023-01-07T10:33:12.841Z,75.27
2023-01-07T10:34:12.799Z,74.96
2023-01-07T10:35:12.811Z,76.63
2023-01-07T10:36:12.778Z,74.36
2023-01-07T10:37:12.752Z,76.25
2023-01-07T10:38:12.790Z,74.55
2023-01-07T10:39:12.735Z,76.96
2023-01-07T10:40:12.747Z,75.47
2023-01-07T10:41:12.742Z,74.03
2023-01-07T10:42:12.811Z,75.62
2023-01-07T10:43:12.701Z,77.32
2023-01-07T10:44:12.858Z,74.66
2023-01-07T10:45:12.683Z,74.77
2023-01-07T10:46:13.763Z,73.82
2023-01-07T10:47:12.646Z,76.89
2023-01-07T10:48:12.687Z,74.00
2023-01-07T10:49:12.661Z,76.23
2023-01-07T10:50:12.628Z,75.96
2023-01-07T10:51:12.651Z,74.96
2023-01-07T10:52:12.604Z,77.18
2023-01-07T10:53:12.618Z,74.22
2023-01-07T10:54:12.579Z,75.56
2023-01-07T10:55:12.591Z,73.63
2023-01-07T10:56:12.583Z,77.07
2023-01-07T10:57:12.599Z,73.27
2023-01-07T10:58:12.628Z,75.24
2023-01-07T10:59:14.388Z,74.02
2023-01-07T11:00:13.566Z,75.37
2023-01-07T11:01:12.629Z,75.38
2023-01-07T11:02:12.834Z,76.10
2023-01-07T11:03:12.511Z,76.26
2023-01-07T11:04:12.553Z,74.42
2023-01-07T11:05:14.752Z,76.37
2023-01-07T11:06:13.495Z,75.51
2023-01-07T11:07:12.472Z,75.46
2023-01-07T11:08:12.464Z,76.01
2023-01-07T11:09:13.298Z,76.18
2023-01-07T11:10:12.484Z,77.25
2023-01-07T11:11:12.405Z,76.87
2023-01-07T11:12:12.433Z,74.40
2023-01-07T11:13:12.401Z,76.22
2023-01-07T11:14:12.425Z,76.26
2023-01-07T11:15:12.419Z,76.18
2023-01-07T11:16:13.042Z,74.99
2023-01-07T11:17:12.392Z,75.08
2023-01-07T11:18:12.507Z,76.22
2023-01-07T11:19:12.363Z,75.51
2023-01-07T11:20:12.380Z,74.74
2023-01-07T11:21:43.436Z,74.36
2023-01-07T11:22:13.319Z,76.33
2023-01-07T11:23:12.286Z,76.84
2023-01-07T11:24:12.356Z,76.92
2023-01-07T11:25:12.284Z,76.36
2023-01-07T11:26:12.245Z,76.00
2023-01-07T11:27:12.265Z,73.42
2023-01-07T11:28:12.253Z,77.25
2023-01-07T11:29:12.262Z,75.76
2023-01-07T11:30:12.313Z,74.61
2023-01-07T11:31:12.247Z,74.59
2023-01-07T11:32:12.225Z,76.47
2023-01-07T11:33:12.193Z,76.84
2023-01-07T11:34:12.250Z,77.42
2023-01-07T11:35:12.237Z,75.68
2023-01-07T11:36:12.188Z,76.22
2023-01-07T11:37:12.161Z,77.67
2023-01-07T11:38:12.171Z,76.99
2023-01-07T11:39:12.173Z,75.64
2023-01-07T11:40:12.133Z,76.72
2023-01-07T11:41:12.121Z,72.96
2023-01-07T11:42:12.081Z,74.29
2023-01-07T11:43:12.131Z,74.99
2023-01-07T11:44:12.116Z,76.75
2023-01-07T11:45:12.104Z,78.49
2023-01-07T11:46:19.498Z,76.15
2023-01-07T11:47:13.082Z,76.23
2023-01-07T11:48:12.052Z,76.30
2023-01-07T11:49:12.034Z,76.89
2023-01-07T11:50:12.068Z,75.98
2023-01-07T11:51:12.010Z,77.88
2023-01-07T11:52:12.001Z,77.71
2023-01-07T11:53:11.990Z,76.28
2023-01-07T11:54:11.995Z,76.93
2023-01-07T11:55:11.978Z,76.05
2023-01-07T11:56:11.993Z,77.07
2023-01-07T11:57:11.961Z,76.87
2023-01-07T11:58:28.891Z,76.73
2023-01-07T11:59:13.927Z,77.34
2023-01-07T12:00:11.946Z,76.11
2023-01-07T12:01:12.012Z,76.31
2023-01-07T12:02:12.041Z,75.72
2023-01-07T12:03:11.950Z,74.58
2023-01-07T12:04:11.869Z,75.79
2023-01-07T12:05:11.863Z,76.02
2023-01-07T12:06:11.874Z,75.95
2023-01-07T12:07:11.866Z,76.33
2023-01-07T12:08:11.851Z,76.62
2023-01-07T12:09:11.813Z,78.16
2023-01-07T12:10:11.822Z,76.67
2023-01-07T12:11:11.812Z,77.80
2023-01-07T12:12:11.783Z,72.95
2023-01-07T12:13:11.778Z,75.32
2023-01-07T12:14:12.662Z,76.51
2023-01-07T12:15:11.763Z,76.65
2023-01-07T12:16:11.777Z,77.83
2023-01-07T12:17:11.743Z,77.23
2023-01-07T12:18:11.774Z,76.04
2023-01-07T12:19:11.747Z,75.33
2023-01-07T12:20:12.714Z,77.90
2023-01-07T12:21:11.700Z,74.79
2023-01-07T12:22:11.697Z,78.07
2023-01-07T12:23:11.674Z,74.85
2023-01-07T12:24:11.650Z,75.57
2023-01-07T12:25:11.672Z,76.03
2023-01-07T12:26:11.628Z,76.83
2023-01-07T12:27:11.629Z,77.62
2023-01-07T12:28:11.613Z,76.01
2023-01-07T12:29:11.639Z,76.56
2023-01-07T12:30:11.632Z,77.14
2023-01-07T12:31:11.635Z,76.78
2023-01-07T12:32:11.571Z,76.51
2023-01-07T12:33:11.619Z,75.81
2023-01-07T12:34:11.658Z,74.90
2023-01-07T12:35:14.614Z,76.74
2023-01-07T12:36:11.572Z,77.35
2023-01-07T12:37:11.522Z,75.10
2023-01-07T12:38:11.532Z,76.84
2023-01-07T12:39:11.471Z,77.04
2023-01-07T12:40:11.509Z,75.76
2023-01-07T12:41:11.493Z,77.96
2023-01-07T12:42:11.489Z,77.27
2023-01-07T12:43:11.456Z,76.79
2023-01-07T12:44:11.451Z,75.59
2023-01-07T12:45:11.441Z,75.87
2023-01-07T12:46:11.537Z,76.21
2023-01-07T12:47:32.220Z,77.15
2023-01-07T12:48:12.410Z,76.48
2023-01-07T12:49:11.415Z,76.86
2023-01-07T12:50:11.471Z,76.21
2023-01-07T12:51:11.424Z,76.16
2023-01-07T12:52:11.373Z,75.57